<?xml version="1.0" encoding="UTF-8" standalone="no" ?>
<gpx xmlns="http://www.topografix.com/GPX/1/1" xmlns:xsi="http://www.w3.org/2001/XMLSchema-instance" xsi:schemaLocation="http://www.topografix.com/GPX/1/1 http://www.topografix.com/GPX/1/1/gpx.xsd" version="1.1" creator="VisuGPX - https://www.visugpx.com">
  <metadata>
    <name>Mimet</name>
    <desc><![CDATA[Petite boucle en partant du chemin de notre Dame des Anges après Mimet.]]></desc>
  </metadata>
  <trk>
    <name><![CDATA[001-2011/04/25-10:22:37]]></name>
    <trkseg>
      <trkpt lat="43.41065" lon="5.49079">
        <ele>536</ele>
        <time>2011-04-25T08:22:37Z</time>
      </trkpt>
      <trkpt lat="43.41046" lon="5.49052">
        <ele>528</ele>
        <time>2011-04-25T08:24:38Z</time>
      </trkpt>
      <trkpt lat="43.41043" lon="5.49047">
        <ele>528</ele>
        <time>2011-04-25T08:24:46Z</time>
      </trkpt>
      <trkpt lat="43.41037" lon="5.49041">
        <ele>528</ele>
        <time>2011-04-25T08:24:54Z</time>
      </trkpt>
      <trkpt lat="43.41032" lon="5.49034">
        <ele>528</ele>
        <time>2011-04-25T08:25:02Z</time>
      </trkpt>
      <trkpt lat="43.41029" lon="5.49029">
        <ele>528</ele>
        <time>2011-04-25T08:25:10Z</time>
      </trkpt>
      <trkpt lat="43.41025" lon="5.49025">
        <ele>528</ele>
        <time>2011-04-25T08:25:18Z</time>
      </trkpt>
      <trkpt lat="43.41024" lon="5.49016">
        <ele>528</ele>
        <time>2011-04-25T08:25:28Z</time>
      </trkpt>
      <trkpt lat="43.41024" lon="5.4901">
        <ele>528</ele>
        <time>2011-04-25T08:25:36Z</time>
      </trkpt>
      <trkpt lat="43.41026" lon="5.49006">
        <ele>529</ele>
        <time>2011-04-25T08:25:46Z</time>
      </trkpt>
      <trkpt lat="43.41022" lon="5.48996">
        <ele>529</ele>
        <time>2011-04-25T08:25:55Z</time>
      </trkpt>
      <trkpt lat="43.41019" lon="5.48986">
        <ele>529</ele>
        <time>2011-04-25T08:26:03Z</time>
      </trkpt>
      <trkpt lat="43.41016" lon="5.48978">
        <ele>529</ele>
        <time>2011-04-25T08:26:11Z</time>
      </trkpt>
      <trkpt lat="43.41013" lon="5.48971">
        <ele>529</ele>
        <time>2011-04-25T08:26:19Z</time>
      </trkpt>
      <trkpt lat="43.41009" lon="5.48963">
        <ele>529</ele>
        <time>2011-04-25T08:26:27Z</time>
      </trkpt>
      <trkpt lat="43.41004" lon="5.48956">
        <ele>530</ele>
        <time>2011-04-25T08:26:35Z</time>
      </trkpt>
      <trkpt lat="43.40997" lon="5.48948">
        <ele>531</ele>
        <time>2011-04-25T08:26:44Z</time>
      </trkpt>
      <trkpt lat="43.40992" lon="5.48941">
        <ele>531</ele>
        <time>2011-04-25T08:26:52Z</time>
      </trkpt>
      <trkpt lat="43.40989" lon="5.48933">
        <ele>531</ele>
        <time>2011-04-25T08:27:01Z</time>
      </trkpt>
      <trkpt lat="43.40989" lon="5.48922">
        <ele>531</ele>
        <time>2011-04-25T08:27:09Z</time>
      </trkpt>
      <trkpt lat="43.40988" lon="5.48913">
        <ele>531</ele>
        <time>2011-04-25T08:27:17Z</time>
      </trkpt>
      <trkpt lat="43.40987" lon="5.48903">
        <ele>531</ele>
        <time>2011-04-25T08:27:25Z</time>
      </trkpt>
      <trkpt lat="43.40984" lon="5.48894">
        <ele>534</ele>
        <time>2011-04-25T08:27:33Z</time>
      </trkpt>
      <trkpt lat="43.40984" lon="5.48884">
        <ele>534</ele>
        <time>2011-04-25T08:27:41Z</time>
      </trkpt>
      <trkpt lat="43.40983" lon="5.48876">
        <ele>535</ele>
        <time>2011-04-25T08:27:49Z</time>
      </trkpt>
      <trkpt lat="43.4098" lon="5.48867">
        <ele>536</ele>
        <time>2011-04-25T08:27:57Z</time>
      </trkpt>
      <trkpt lat="43.40976" lon="5.48856">
        <ele>538</ele>
        <time>2011-04-25T08:28:06Z</time>
      </trkpt>
      <trkpt lat="43.40973" lon="5.48849">
        <ele>538</ele>
        <time>2011-04-25T08:28:14Z</time>
      </trkpt>
      <trkpt lat="43.4097" lon="5.48839">
        <ele>539</ele>
        <time>2011-04-25T08:28:22Z</time>
      </trkpt>
      <trkpt lat="43.40966" lon="5.48831">
        <ele>539</ele>
        <time>2011-04-25T08:28:30Z</time>
      </trkpt>
      <trkpt lat="43.40961" lon="5.48825">
        <ele>539</ele>
        <time>2011-04-25T08:28:38Z</time>
      </trkpt>
      <trkpt lat="43.40957" lon="5.48815">
        <ele>539</ele>
        <time>2011-04-25T08:28:47Z</time>
      </trkpt>
      <trkpt lat="43.40956" lon="5.48806">
        <ele>540</ele>
        <time>2011-04-25T08:28:55Z</time>
      </trkpt>
      <trkpt lat="43.40956" lon="5.48793">
        <ele>542</ele>
        <time>2011-04-25T08:29:04Z</time>
      </trkpt>
      <trkpt lat="43.40956" lon="5.48782">
        <ele>544</ele>
        <time>2011-04-25T08:29:13Z</time>
      </trkpt>
      <trkpt lat="43.40955" lon="5.48772">
        <ele>545</ele>
        <time>2011-04-25T08:29:22Z</time>
      </trkpt>
      <trkpt lat="43.40958" lon="5.48764">
        <ele>546</ele>
        <time>2011-04-25T08:29:30Z</time>
      </trkpt>
      <trkpt lat="43.40958" lon="5.48754">
        <ele>550</ele>
        <time>2011-04-25T08:29:38Z</time>
      </trkpt>
      <trkpt lat="43.40952" lon="5.48741">
        <ele>550</ele>
        <time>2011-04-25T08:29:47Z</time>
      </trkpt>
      <trkpt lat="43.40947" lon="5.48733">
        <ele>550</ele>
        <time>2011-04-25T08:29:56Z</time>
      </trkpt>
      <trkpt lat="43.40942" lon="5.48726">
        <ele>550</ele>
        <time>2011-04-25T08:30:04Z</time>
      </trkpt>
      <trkpt lat="43.40937" lon="5.48719">
        <ele>550</ele>
        <time>2011-04-25T08:30:12Z</time>
      </trkpt>
      <trkpt lat="43.40933" lon="5.48711">
        <ele>549</ele>
        <time>2011-04-25T08:30:20Z</time>
      </trkpt>
      <trkpt lat="43.40931" lon="5.48701">
        <ele>548</ele>
        <time>2011-04-25T08:30:28Z</time>
      </trkpt>
      <trkpt lat="43.4093" lon="5.48689">
        <ele>548</ele>
        <time>2011-04-25T08:30:37Z</time>
      </trkpt>
      <trkpt lat="43.4093" lon="5.48677">
        <ele>551</ele>
        <time>2011-04-25T08:30:45Z</time>
      </trkpt>
      <trkpt lat="43.40929" lon="5.48668">
        <ele>554</ele>
        <time>2011-04-25T08:30:53Z</time>
      </trkpt>
      <trkpt lat="43.40927" lon="5.48657">
        <ele>554</ele>
        <time>2011-04-25T08:31:02Z</time>
      </trkpt>
      <trkpt lat="43.40925" lon="5.48648">
        <ele>554</ele>
        <time>2011-04-25T08:31:10Z</time>
      </trkpt>
      <trkpt lat="43.40922" lon="5.4864">
        <ele>554</ele>
        <time>2011-04-25T08:31:18Z</time>
      </trkpt>
      <trkpt lat="43.40918" lon="5.4863">
        <ele>554</ele>
        <time>2011-04-25T08:31:27Z</time>
      </trkpt>
      <trkpt lat="43.40913" lon="5.48621">
        <ele>554</ele>
        <time>2011-04-25T08:31:35Z</time>
      </trkpt>
      <trkpt lat="43.4091" lon="5.48609">
        <ele>557</ele>
        <time>2011-04-25T08:31:44Z</time>
      </trkpt>
      <trkpt lat="43.40909" lon="5.48602">
        <ele>560</ele>
        <time>2011-04-25T08:31:53Z</time>
      </trkpt>
      <trkpt lat="43.40907" lon="5.48594">
        <ele>561</ele>
        <time>2011-04-25T08:32:01Z</time>
      </trkpt>
      <trkpt lat="43.40905" lon="5.48583">
        <ele>561</ele>
        <time>2011-04-25T08:32:10Z</time>
      </trkpt>
      <trkpt lat="43.40904" lon="5.48574">
        <ele>561</ele>
        <time>2011-04-25T08:32:18Z</time>
      </trkpt>
      <trkpt lat="43.40903" lon="5.48564">
        <ele>561</ele>
        <time>2011-04-25T08:32:26Z</time>
      </trkpt>
      <trkpt lat="43.40901" lon="5.48555">
        <ele>561</ele>
        <time>2011-04-25T08:32:34Z</time>
      </trkpt>
      <trkpt lat="43.40896" lon="5.48545">
        <ele>561</ele>
        <time>2011-04-25T08:32:42Z</time>
      </trkpt>
      <trkpt lat="43.4089" lon="5.48539">
        <ele>562</ele>
        <time>2011-04-25T08:32:51Z</time>
      </trkpt>
      <trkpt lat="43.40888" lon="5.48536">
        <ele>563</ele>
        <time>2011-04-25T08:33:01Z</time>
      </trkpt>
      <trkpt lat="43.40885" lon="5.48531">
        <ele>564</ele>
        <time>2011-04-25T08:33:10Z</time>
      </trkpt>
      <trkpt lat="43.40881" lon="5.48524">
        <ele>564</ele>
        <time>2011-04-25T08:33:18Z</time>
      </trkpt>
      <trkpt lat="43.40877" lon="5.48516">
        <ele>564</ele>
        <time>2011-04-25T08:33:26Z</time>
      </trkpt>
      <trkpt lat="43.40873" lon="5.48507">
        <ele>564</ele>
        <time>2011-04-25T08:33:35Z</time>
      </trkpt>
      <trkpt lat="43.40871" lon="5.48498">
        <ele>564</ele>
        <time>2011-04-25T08:33:43Z</time>
      </trkpt>
      <trkpt lat="43.40868" lon="5.48489">
        <ele>564</ele>
        <time>2011-04-25T08:33:51Z</time>
      </trkpt>
      <trkpt lat="43.40864" lon="5.4848">
        <ele>564</ele>
        <time>2011-04-25T08:33:59Z</time>
      </trkpt>
      <trkpt lat="43.40861" lon="5.48472">
        <ele>565</ele>
        <time>2011-04-25T08:34:07Z</time>
      </trkpt>
      <trkpt lat="43.40859" lon="5.48464">
        <ele>566</ele>
        <time>2011-04-25T08:34:15Z</time>
      </trkpt>
      <trkpt lat="43.40857" lon="5.48455">
        <ele>566</ele>
        <time>2011-04-25T08:34:23Z</time>
      </trkpt>
      <trkpt lat="43.40853" lon="5.48446">
        <ele>569</ele>
        <time>2011-04-25T08:34:32Z</time>
      </trkpt>
      <trkpt lat="43.40852" lon="5.48437">
        <ele>569</ele>
        <time>2011-04-25T08:34:41Z</time>
      </trkpt>
      <trkpt lat="43.40849" lon="5.48428">
        <ele>572</ele>
        <time>2011-04-25T08:34:50Z</time>
      </trkpt>
      <trkpt lat="43.40847" lon="5.4842">
        <ele>572</ele>
        <time>2011-04-25T08:34:59Z</time>
      </trkpt>
      <trkpt lat="43.40845" lon="5.48414">
        <ele>573</ele>
        <time>2011-04-25T08:35:07Z</time>
      </trkpt>
      <trkpt lat="43.40844" lon="5.48406">
        <ele>573</ele>
        <time>2011-04-25T08:35:15Z</time>
      </trkpt>
      <trkpt lat="43.40843" lon="5.484">
        <ele>574</ele>
        <time>2011-04-25T08:35:23Z</time>
      </trkpt>
      <trkpt lat="43.40842" lon="5.48392">
        <ele>574</ele>
        <time>2011-04-25T08:35:31Z</time>
      </trkpt>
      <trkpt lat="43.40841" lon="5.48384">
        <ele>576</ele>
        <time>2011-04-25T08:35:39Z</time>
      </trkpt>
      <trkpt lat="43.40842" lon="5.48376">
        <ele>579</ele>
        <time>2011-04-25T08:35:48Z</time>
      </trkpt>
      <trkpt lat="43.40842" lon="5.48372">
        <ele>580</ele>
        <time>2011-04-25T08:36:05Z</time>
      </trkpt>
      <trkpt lat="43.4084" lon="5.48365">
        <ele>580</ele>
        <time>2011-04-25T08:36:13Z</time>
      </trkpt>
      <trkpt lat="43.40838" lon="5.48356">
        <ele>581</ele>
        <time>2011-04-25T08:36:21Z</time>
      </trkpt>
      <trkpt lat="43.40835" lon="5.48353">
        <ele>583</ele>
        <time>2011-04-25T08:36:30Z</time>
      </trkpt>
      <trkpt lat="43.4083" lon="5.4835">
        <ele>585</ele>
        <time>2011-04-25T08:36:39Z</time>
      </trkpt>
      <trkpt lat="43.40826" lon="5.48348">
        <ele>586</ele>
        <time>2011-04-25T08:36:52Z</time>
      </trkpt>
      <trkpt lat="43.40824" lon="5.48352">
        <ele>586</ele>
        <time>2011-04-25T08:37:00Z</time>
      </trkpt>
      <trkpt lat="43.40823" lon="5.48359">
        <ele>587</ele>
        <time>2011-04-25T08:37:08Z</time>
      </trkpt>
      <trkpt lat="43.40824" lon="5.48365">
        <ele>589</ele>
        <time>2011-04-25T08:37:16Z</time>
      </trkpt>
      <trkpt lat="43.40823" lon="5.48372">
        <ele>590</ele>
        <time>2011-04-25T08:37:24Z</time>
      </trkpt>
      <trkpt lat="43.4082" lon="5.48379">
        <ele>590</ele>
        <time>2011-04-25T08:37:32Z</time>
      </trkpt>
      <trkpt lat="43.40817" lon="5.48387">
        <ele>586</ele>
        <time>2011-04-25T08:37:40Z</time>
      </trkpt>
      <trkpt lat="43.40813" lon="5.48395">
        <ele>584</ele>
        <time>2011-04-25T08:37:48Z</time>
      </trkpt>
      <trkpt lat="43.40809" lon="5.48403">
        <ele>584</ele>
        <time>2011-04-25T08:37:56Z</time>
      </trkpt>
      <trkpt lat="43.40805" lon="5.48411">
        <ele>583</ele>
        <time>2011-04-25T08:38:04Z</time>
      </trkpt>
      <trkpt lat="43.40802" lon="5.4842">
        <ele>581</ele>
        <time>2011-04-25T08:38:12Z</time>
      </trkpt>
      <trkpt lat="43.40797" lon="5.48426">
        <ele>580</ele>
        <time>2011-04-25T08:38:20Z</time>
      </trkpt>
      <trkpt lat="43.40793" lon="5.48433">
        <ele>580</ele>
        <time>2011-04-25T08:38:28Z</time>
      </trkpt>
      <trkpt lat="43.40786" lon="5.48439">
        <ele>580</ele>
        <time>2011-04-25T08:38:36Z</time>
      </trkpt>
      <trkpt lat="43.40782" lon="5.48449">
        <ele>580</ele>
        <time>2011-04-25T08:38:45Z</time>
      </trkpt>
      <trkpt lat="43.40781" lon="5.48458">
        <ele>580</ele>
        <time>2011-04-25T08:38:53Z</time>
      </trkpt>
      <trkpt lat="43.40778" lon="5.48468">
        <ele>580</ele>
        <time>2011-04-25T08:39:02Z</time>
      </trkpt>
      <trkpt lat="43.40774" lon="5.48475">
        <ele>580</ele>
        <time>2011-04-25T08:39:10Z</time>
      </trkpt>
      <trkpt lat="43.4077" lon="5.48482">
        <ele>578</ele>
        <time>2011-04-25T08:39:18Z</time>
      </trkpt>
      <trkpt lat="43.40766" lon="5.4849">
        <ele>577</ele>
        <time>2011-04-25T08:39:26Z</time>
      </trkpt>
      <trkpt lat="43.40762" lon="5.48497">
        <ele>576</ele>
        <time>2011-04-25T08:39:34Z</time>
      </trkpt>
      <trkpt lat="43.40757" lon="5.48507">
        <ele>576</ele>
        <time>2011-04-25T08:39:43Z</time>
      </trkpt>
      <trkpt lat="43.40754" lon="5.48518">
        <ele>576</ele>
        <time>2011-04-25T08:39:51Z</time>
      </trkpt>
      <trkpt lat="43.40753" lon="5.48526">
        <ele>576</ele>
        <time>2011-04-25T08:39:59Z</time>
      </trkpt>
      <trkpt lat="43.4075" lon="5.48535">
        <ele>576</ele>
        <time>2011-04-25T08:40:07Z</time>
      </trkpt>
      <trkpt lat="43.40748" lon="5.48543">
        <ele>576</ele>
        <time>2011-04-25T08:40:15Z</time>
      </trkpt>
      <trkpt lat="43.40745" lon="5.48552">
        <ele>576</ele>
        <time>2011-04-25T08:40:23Z</time>
      </trkpt>
      <trkpt lat="43.40744" lon="5.48562">
        <ele>576</ele>
        <time>2011-04-25T08:40:31Z</time>
      </trkpt>
      <trkpt lat="43.40743" lon="5.48573">
        <ele>576</ele>
        <time>2011-04-25T08:40:39Z</time>
      </trkpt>
      <trkpt lat="43.40742" lon="5.48582">
        <ele>576</ele>
        <time>2011-04-25T08:40:47Z</time>
      </trkpt>
      <trkpt lat="43.40739" lon="5.48591">
        <ele>576</ele>
        <time>2011-04-25T08:40:55Z</time>
      </trkpt>
      <trkpt lat="43.40736" lon="5.48601">
        <ele>576</ele>
        <time>2011-04-25T08:41:03Z</time>
      </trkpt>
      <trkpt lat="43.40734" lon="5.4861">
        <ele>576</ele>
        <time>2011-04-25T08:41:11Z</time>
      </trkpt>
      <trkpt lat="43.40733" lon="5.48619">
        <ele>576</ele>
        <time>2011-04-25T08:41:19Z</time>
      </trkpt>
      <trkpt lat="43.40728" lon="5.48626">
        <ele>576</ele>
        <time>2011-04-25T08:41:27Z</time>
      </trkpt>
      <trkpt lat="43.40724" lon="5.48634">
        <ele>576</ele>
        <time>2011-04-25T08:41:35Z</time>
      </trkpt>
      <trkpt lat="43.4072" lon="5.48641">
        <ele>576</ele>
        <time>2011-04-25T08:41:43Z</time>
      </trkpt>
      <trkpt lat="43.40717" lon="5.48649">
        <ele>576</ele>
        <time>2011-04-25T08:41:51Z</time>
      </trkpt>
      <trkpt lat="43.40714" lon="5.48657">
        <ele>575</ele>
        <time>2011-04-25T08:41:59Z</time>
      </trkpt>
      <trkpt lat="43.40711" lon="5.48664">
        <ele>575</ele>
        <time>2011-04-25T08:42:07Z</time>
      </trkpt>
      <trkpt lat="43.40705" lon="5.48672">
        <ele>575</ele>
        <time>2011-04-25T08:42:15Z</time>
      </trkpt>
      <trkpt lat="43.407" lon="5.48679">
        <ele>574</ele>
        <time>2011-04-25T08:42:24Z</time>
      </trkpt>
      <trkpt lat="43.40696" lon="5.48686">
        <ele>574</ele>
        <time>2011-04-25T08:42:32Z</time>
      </trkpt>
      <trkpt lat="43.40692" lon="5.48694">
        <ele>574</ele>
        <time>2011-04-25T08:42:40Z</time>
      </trkpt>
      <trkpt lat="43.40688" lon="5.48702">
        <ele>574</ele>
        <time>2011-04-25T08:42:48Z</time>
      </trkpt>
      <trkpt lat="43.40685" lon="5.48709">
        <ele>574</ele>
        <time>2011-04-25T08:42:56Z</time>
      </trkpt>
      <trkpt lat="43.40678" lon="5.48711">
        <ele>573</ele>
        <time>2011-04-25T08:43:04Z</time>
      </trkpt>
      <trkpt lat="43.40674" lon="5.48707">
        <ele>573</ele>
        <time>2011-04-25T08:43:12Z</time>
      </trkpt>
      <trkpt lat="43.40669" lon="5.48699">
        <ele>573</ele>
        <time>2011-04-25T08:43:20Z</time>
      </trkpt>
      <trkpt lat="43.40666" lon="5.4869">
        <ele>573</ele>
        <time>2011-04-25T08:43:28Z</time>
      </trkpt>
      <trkpt lat="43.40662" lon="5.48682">
        <ele>573</ele>
        <time>2011-04-25T08:43:36Z</time>
      </trkpt>
      <trkpt lat="43.40661" lon="5.48671">
        <ele>573</ele>
        <time>2011-04-25T08:43:45Z</time>
      </trkpt>
      <trkpt lat="43.4066" lon="5.48659">
        <ele>573</ele>
        <time>2011-04-25T08:43:54Z</time>
      </trkpt>
      <trkpt lat="43.40658" lon="5.4865">
        <ele>573</ele>
        <time>2011-04-25T08:44:02Z</time>
      </trkpt>
      <trkpt lat="43.40657" lon="5.48647">
        <ele>573</ele>
        <time>2011-04-25T08:44:10Z</time>
      </trkpt>
      <trkpt lat="43.40652" lon="5.48638">
        <ele>573</ele>
        <time>2011-04-25T08:44:18Z</time>
      </trkpt>
      <trkpt lat="43.40645" lon="5.48632">
        <ele>573</ele>
        <time>2011-04-25T08:44:26Z</time>
      </trkpt>
      <trkpt lat="43.40636" lon="5.48633">
        <ele>573</ele>
        <time>2011-04-25T08:44:35Z</time>
      </trkpt>
      <trkpt lat="43.40632" lon="5.48643">
        <ele>573</ele>
        <time>2011-04-25T08:44:43Z</time>
      </trkpt>
      <trkpt lat="43.4063" lon="5.48654">
        <ele>573</ele>
        <time>2011-04-25T08:44:51Z</time>
      </trkpt>
      <trkpt lat="43.40627" lon="5.48665">
        <ele>573</ele>
        <time>2011-04-25T08:45:00Z</time>
      </trkpt>
      <trkpt lat="43.40625" lon="5.48676">
        <ele>573</ele>
        <time>2011-04-25T08:45:08Z</time>
      </trkpt>
      <trkpt lat="43.40623" lon="5.48686">
        <ele>573</ele>
        <time>2011-04-25T08:45:16Z</time>
      </trkpt>
      <trkpt lat="43.40624" lon="5.48698">
        <ele>574</ele>
        <time>2011-04-25T08:45:25Z</time>
      </trkpt>
      <trkpt lat="43.40629" lon="5.48706">
        <ele>575</ele>
        <time>2011-04-25T08:45:33Z</time>
      </trkpt>
      <trkpt lat="43.40633" lon="5.48711">
        <ele>575</ele>
        <time>2011-04-25T08:45:42Z</time>
      </trkpt>
      <trkpt lat="43.40634" lon="5.48714">
        <ele>579</ele>
        <time>2011-04-25T08:46:19Z</time>
      </trkpt>
      <trkpt lat="43.40638" lon="5.4872">
        <ele>579</ele>
        <time>2011-04-25T08:46:27Z</time>
      </trkpt>
      <trkpt lat="43.40639" lon="5.4873">
        <ele>579</ele>
        <time>2011-04-25T08:46:35Z</time>
      </trkpt>
      <trkpt lat="43.40636" lon="5.48737">
        <ele>579</ele>
        <time>2011-04-25T08:46:43Z</time>
      </trkpt>
      <trkpt lat="43.40627" lon="5.48741">
        <ele>579</ele>
        <time>2011-04-25T08:46:52Z</time>
      </trkpt>
      <trkpt lat="43.4062" lon="5.48741">
        <ele>581</ele>
        <time>2011-04-25T08:47:00Z</time>
      </trkpt>
      <trkpt lat="43.40612" lon="5.48742">
        <ele>582</ele>
        <time>2011-04-25T08:47:09Z</time>
      </trkpt>
      <trkpt lat="43.40605" lon="5.48744">
        <ele>583</ele>
        <time>2011-04-25T08:47:17Z</time>
      </trkpt>
      <trkpt lat="43.406" lon="5.4875">
        <ele>583</ele>
        <time>2011-04-25T08:47:25Z</time>
      </trkpt>
      <trkpt lat="43.40597" lon="5.48759">
        <ele>584</ele>
        <time>2011-04-25T08:47:33Z</time>
      </trkpt>
      <trkpt lat="43.40595" lon="5.48772">
        <ele>584</ele>
        <time>2011-04-25T08:47:42Z</time>
      </trkpt>
      <trkpt lat="43.40593" lon="5.48784">
        <ele>584</ele>
        <time>2011-04-25T08:47:50Z</time>
      </trkpt>
      <trkpt lat="43.40587" lon="5.48795">
        <ele>584</ele>
        <time>2011-04-25T08:47:59Z</time>
      </trkpt>
      <trkpt lat="43.40579" lon="5.48799">
        <ele>584</ele>
        <time>2011-04-25T08:48:08Z</time>
      </trkpt>
      <trkpt lat="43.40569" lon="5.48802">
        <ele>584</ele>
        <time>2011-04-25T08:48:17Z</time>
      </trkpt>
      <trkpt lat="43.4056" lon="5.48799">
        <ele>584</ele>
        <time>2011-04-25T08:48:26Z</time>
      </trkpt>
      <trkpt lat="43.40553" lon="5.48796">
        <ele>584</ele>
        <time>2011-04-25T08:48:34Z</time>
      </trkpt>
      <trkpt lat="43.40549" lon="5.48784">
        <ele>584</ele>
        <time>2011-04-25T08:48:43Z</time>
      </trkpt>
      <trkpt lat="43.40545" lon="5.48776">
        <ele>584</ele>
        <time>2011-04-25T08:48:52Z</time>
      </trkpt>
      <trkpt lat="43.4054" lon="5.48763">
        <ele>584</ele>
        <time>2011-04-25T08:49:01Z</time>
      </trkpt>
      <trkpt lat="43.40536" lon="5.48752">
        <ele>585</ele>
        <time>2011-04-25T08:49:10Z</time>
      </trkpt>
      <trkpt lat="43.40532" lon="5.48743">
        <ele>585</ele>
        <time>2011-04-25T08:49:18Z</time>
      </trkpt>
      <trkpt lat="43.40532" lon="5.4874">
        <ele>587</ele>
        <time>2011-04-25T08:49:29Z</time>
      </trkpt>
      <trkpt lat="43.40534" lon="5.48743">
        <ele>589</ele>
        <time>2011-04-25T08:49:42Z</time>
      </trkpt>
      <trkpt lat="43.40532" lon="5.48745">
        <ele>589</ele>
        <time>2011-04-25T08:49:57Z</time>
      </trkpt>
      <trkpt lat="43.40527" lon="5.48731">
        <ele>589</ele>
        <time>2011-04-25T08:50:05Z</time>
      </trkpt>
      <trkpt lat="43.40519" lon="5.48704">
        <ele>589</ele>
        <time>2011-04-25T08:50:13Z</time>
      </trkpt>
      <trkpt lat="43.40513" lon="5.48688">
        <ele>588</ele>
        <time>2011-04-25T08:50:22Z</time>
      </trkpt>
      <trkpt lat="43.40509" lon="5.48684">
        <ele>588</ele>
        <time>2011-04-25T08:50:35Z</time>
      </trkpt>
      <trkpt lat="43.40508" lon="5.48684">
        <ele>588</ele>
        <time>2011-04-25T08:50:44Z</time>
      </trkpt>
      <trkpt lat="43.40508" lon="5.48683">
        <ele>589</ele>
        <time>2011-04-25T08:50:54Z</time>
      </trkpt>
      <trkpt lat="43.40511" lon="5.48675">
        <ele>589</ele>
        <time>2011-04-25T08:51:02Z</time>
      </trkpt>
      <trkpt lat="43.40515" lon="5.48667">
        <ele>589</ele>
        <time>2011-04-25T08:51:11Z</time>
      </trkpt>
      <trkpt lat="43.40519" lon="5.48657">
        <ele>588</ele>
        <time>2011-04-25T08:51:20Z</time>
      </trkpt>
      <trkpt lat="43.40521" lon="5.4865">
        <ele>587</ele>
        <time>2011-04-25T08:51:29Z</time>
      </trkpt>
      <trkpt lat="43.40521" lon="5.48641">
        <ele>587</ele>
        <time>2011-04-25T08:51:37Z</time>
      </trkpt>
      <trkpt lat="43.40524" lon="5.48635">
        <ele>587</ele>
        <time>2011-04-25T08:51:48Z</time>
      </trkpt>
      <trkpt lat="43.40524" lon="5.48631">
        <ele>587</ele>
        <time>2011-04-25T08:51:56Z</time>
      </trkpt>
      <trkpt lat="43.40524" lon="5.48622">
        <ele>586</ele>
        <time>2011-04-25T08:52:04Z</time>
      </trkpt>
      <trkpt lat="43.40524" lon="5.48614">
        <ele>586</ele>
        <time>2011-04-25T08:52:13Z</time>
      </trkpt>
      <trkpt lat="43.40524" lon="5.48602">
        <ele>584</ele>
        <time>2011-04-25T08:52:23Z</time>
      </trkpt>
      <trkpt lat="43.40524" lon="5.4859">
        <ele>582</ele>
        <time>2011-04-25T08:52:32Z</time>
      </trkpt>
      <trkpt lat="43.40519" lon="5.48583">
        <ele>581</ele>
        <time>2011-04-25T08:52:41Z</time>
      </trkpt>
      <trkpt lat="43.40518" lon="5.48579">
        <ele>581</ele>
        <time>2011-04-25T08:52:49Z</time>
      </trkpt>
      <trkpt lat="43.40519" lon="5.48569">
        <ele>580</ele>
        <time>2011-04-25T08:52:58Z</time>
      </trkpt>
      <trkpt lat="43.40519" lon="5.48558">
        <ele>579</ele>
        <time>2011-04-25T08:53:07Z</time>
      </trkpt>
      <trkpt lat="43.40515" lon="5.48554">
        <ele>579</ele>
        <time>2011-04-25T08:53:15Z</time>
      </trkpt>
      <trkpt lat="43.40511" lon="5.48547">
        <ele>579</ele>
        <time>2011-04-25T08:53:24Z</time>
      </trkpt>
      <trkpt lat="43.40508" lon="5.48543">
        <ele>578</ele>
        <time>2011-04-25T08:53:33Z</time>
      </trkpt>
      <trkpt lat="43.40504" lon="5.48537">
        <ele>576</ele>
        <time>2011-04-25T08:53:41Z</time>
      </trkpt>
      <trkpt lat="43.40499" lon="5.48531">
        <ele>576</ele>
        <time>2011-04-25T08:53:50Z</time>
      </trkpt>
      <trkpt lat="43.40497" lon="5.48522">
        <ele>575</ele>
        <time>2011-04-25T08:54:01Z</time>
      </trkpt>
      <trkpt lat="43.40494" lon="5.48512">
        <ele>574</ele>
        <time>2011-04-25T08:54:09Z</time>
      </trkpt>
      <trkpt lat="43.40492" lon="5.48505">
        <ele>574</ele>
        <time>2011-04-25T08:54:17Z</time>
      </trkpt>
      <trkpt lat="43.40489" lon="5.48499">
        <ele>572</ele>
        <time>2011-04-25T08:54:26Z</time>
      </trkpt>
      <trkpt lat="43.40489" lon="5.48493">
        <ele>572</ele>
        <time>2011-04-25T08:54:34Z</time>
      </trkpt>
      <trkpt lat="43.4049" lon="5.48484">
        <ele>571</ele>
        <time>2011-04-25T08:54:42Z</time>
      </trkpt>
      <trkpt lat="43.40494" lon="5.48478">
        <ele>570</ele>
        <time>2011-04-25T08:54:50Z</time>
      </trkpt>
      <trkpt lat="43.40494" lon="5.48471">
        <ele>569</ele>
        <time>2011-04-25T08:54:59Z</time>
      </trkpt>
      <trkpt lat="43.40494" lon="5.48467">
        <ele>569</ele>
        <time>2011-04-25T08:55:07Z</time>
      </trkpt>
      <trkpt lat="43.40495" lon="5.48466">
        <ele>569</ele>
        <time>2011-04-25T08:55:18Z</time>
      </trkpt>
      <trkpt lat="43.40498" lon="5.48464">
        <ele>569</ele>
        <time>2011-04-25T08:55:28Z</time>
      </trkpt>
      <trkpt lat="43.405" lon="5.48463">
        <ele>569</ele>
        <time>2011-04-25T08:55:36Z</time>
      </trkpt>
      <trkpt lat="43.40504" lon="5.48462">
        <ele>568</ele>
        <time>2011-04-25T08:55:46Z</time>
      </trkpt>
      <trkpt lat="43.40505" lon="5.4846">
        <ele>568</ele>
        <time>2011-04-25T08:56:32Z</time>
      </trkpt>
      <trkpt lat="43.40506" lon="5.48459">
        <ele>568</ele>
        <time>2011-04-25T08:56:45Z</time>
      </trkpt>
      <trkpt lat="43.40507" lon="5.48461">
        <ele>566</ele>
        <time>2011-04-25T08:57:15Z</time>
      </trkpt>
      <trkpt lat="43.40507" lon="5.48459">
        <ele>566</ele>
        <time>2011-04-25T08:57:23Z</time>
      </trkpt>
      <trkpt lat="43.40506" lon="5.48459">
        <ele>566</ele>
        <time>2011-04-25T08:57:37Z</time>
      </trkpt>
      <trkpt lat="43.40502" lon="5.48456">
        <ele>566</ele>
        <time>2011-04-25T08:57:51Z</time>
      </trkpt>
      <trkpt lat="43.40498" lon="5.48454">
        <ele>566</ele>
        <time>2011-04-25T08:58:03Z</time>
      </trkpt>
      <trkpt lat="43.40494" lon="5.48452">
        <ele>566</ele>
        <time>2011-04-25T08:58:13Z</time>
      </trkpt>
      <trkpt lat="43.40493" lon="5.48444">
        <ele>566</ele>
        <time>2011-04-25T08:58:21Z</time>
      </trkpt>
      <trkpt lat="43.40488" lon="5.48439">
        <ele>566</ele>
        <time>2011-04-25T08:58:30Z</time>
      </trkpt>
      <trkpt lat="43.40485" lon="5.48431">
        <ele>565</ele>
        <time>2011-04-25T08:58:38Z</time>
      </trkpt>
      <trkpt lat="43.40487" lon="5.48424">
        <ele>563</ele>
        <time>2011-04-25T08:58:46Z</time>
      </trkpt>
      <trkpt lat="43.40484" lon="5.48416">
        <ele>560</ele>
        <time>2011-04-25T08:58:54Z</time>
      </trkpt>
      <trkpt lat="43.40484" lon="5.48406">
        <ele>558</ele>
        <time>2011-04-25T08:59:03Z</time>
      </trkpt>
      <trkpt lat="43.40483" lon="5.48395">
        <ele>556</ele>
        <time>2011-04-25T08:59:12Z</time>
      </trkpt>
      <trkpt lat="43.4049" lon="5.48389">
        <ele>555</ele>
        <time>2011-04-25T08:59:20Z</time>
      </trkpt>
      <trkpt lat="43.40494" lon="5.48378">
        <ele>554</ele>
        <time>2011-04-25T08:59:28Z</time>
      </trkpt>
      <trkpt lat="43.40499" lon="5.48366">
        <ele>554</ele>
        <time>2011-04-25T08:59:36Z</time>
      </trkpt>
      <trkpt lat="43.40504" lon="5.48353">
        <ele>553</ele>
        <time>2011-04-25T08:59:44Z</time>
      </trkpt>
      <trkpt lat="43.40502" lon="5.48341">
        <ele>552</ele>
        <time>2011-04-25T08:59:52Z</time>
      </trkpt>
      <trkpt lat="43.40496" lon="5.48328">
        <ele>550</ele>
        <time>2011-04-25T09:00:01Z</time>
      </trkpt>
      <trkpt lat="43.40493" lon="5.48322">
        <ele>549</ele>
        <time>2011-04-25T09:00:10Z</time>
      </trkpt>
      <trkpt lat="43.40492" lon="5.4831">
        <ele>548</ele>
        <time>2011-04-25T09:00:18Z</time>
      </trkpt>
      <trkpt lat="43.40494" lon="5.48302">
        <ele>547</ele>
        <time>2011-04-25T09:00:26Z</time>
      </trkpt>
      <trkpt lat="43.40487" lon="5.48293">
        <ele>545</ele>
        <time>2011-04-25T09:00:35Z</time>
      </trkpt>
      <trkpt lat="43.40483" lon="5.48287">
        <ele>543</ele>
        <time>2011-04-25T09:00:43Z</time>
      </trkpt>
      <trkpt lat="43.40478" lon="5.48291">
        <ele>540</ele>
        <time>2011-04-25T09:00:54Z</time>
      </trkpt>
      <trkpt lat="43.40474" lon="5.48297">
        <ele>538</ele>
        <time>2011-04-25T09:01:04Z</time>
      </trkpt>
      <trkpt lat="43.4047" lon="5.48302">
        <ele>535</ele>
        <time>2011-04-25T09:01:12Z</time>
      </trkpt>
      <trkpt lat="43.40468" lon="5.48307">
        <ele>534</ele>
        <time>2011-04-25T09:01:23Z</time>
      </trkpt>
      <trkpt lat="43.40466" lon="5.48307">
        <ele>534</ele>
        <time>2011-04-25T09:01:34Z</time>
      </trkpt>
      <trkpt lat="43.40465" lon="5.48306">
        <ele>534</ele>
        <time>2011-04-25T09:02:05Z</time>
      </trkpt>
      <trkpt lat="43.40461" lon="5.48307">
        <ele>534</ele>
        <time>2011-04-25T09:02:13Z</time>
      </trkpt>
      <trkpt lat="43.40456" lon="5.48312">
        <ele>534</ele>
        <time>2011-04-25T09:02:24Z</time>
      </trkpt>
      <trkpt lat="43.40453" lon="5.48314">
        <ele>534</ele>
        <time>2011-04-25T09:02:32Z</time>
      </trkpt>
      <trkpt lat="43.40447" lon="5.48317">
        <ele>532</ele>
        <time>2011-04-25T09:02:42Z</time>
      </trkpt>
      <trkpt lat="43.40444" lon="5.48322">
        <ele>531</ele>
        <time>2011-04-25T09:02:51Z</time>
      </trkpt>
      <trkpt lat="43.40441" lon="5.48327">
        <ele>530</ele>
        <time>2011-04-25T09:02:59Z</time>
      </trkpt>
      <trkpt lat="43.40436" lon="5.48332">
        <ele>528</ele>
        <time>2011-04-25T09:03:07Z</time>
      </trkpt>
      <trkpt lat="43.4043" lon="5.48336">
        <ele>527</ele>
        <time>2011-04-25T09:03:15Z</time>
      </trkpt>
      <trkpt lat="43.40425" lon="5.48342">
        <ele>526</ele>
        <time>2011-04-25T09:03:25Z</time>
      </trkpt>
      <trkpt lat="43.40421" lon="5.48346">
        <ele>525</ele>
        <time>2011-04-25T09:03:33Z</time>
      </trkpt>
      <trkpt lat="43.40418" lon="5.4835">
        <ele>523</ele>
        <time>2011-04-25T09:03:42Z</time>
      </trkpt>
      <trkpt lat="43.40414" lon="5.48354">
        <ele>522</ele>
        <time>2011-04-25T09:03:52Z</time>
      </trkpt>
      <trkpt lat="43.40408" lon="5.48356">
        <ele>521</ele>
        <time>2011-04-25T09:04:01Z</time>
      </trkpt>
      <trkpt lat="43.40402" lon="5.48356">
        <ele>521</ele>
        <time>2011-04-25T09:04:10Z</time>
      </trkpt>
      <trkpt lat="43.40396" lon="5.48353">
        <ele>521</ele>
        <time>2011-04-25T09:04:18Z</time>
      </trkpt>
      <trkpt lat="43.40391" lon="5.48353">
        <ele>521</ele>
        <time>2011-04-25T09:04:26Z</time>
      </trkpt>
      <trkpt lat="43.40385" lon="5.48353">
        <ele>521</ele>
        <time>2011-04-25T09:04:35Z</time>
      </trkpt>
      <trkpt lat="43.40379" lon="5.48348">
        <ele>521</ele>
        <time>2011-04-25T09:04:43Z</time>
      </trkpt>
      <trkpt lat="43.40373" lon="5.48352">
        <ele>521</ele>
        <time>2011-04-25T09:04:51Z</time>
      </trkpt>
      <trkpt lat="43.40371" lon="5.48352">
        <ele>521</ele>
        <time>2011-04-25T09:05:06Z</time>
      </trkpt>
      <trkpt lat="43.40367" lon="5.48352">
        <ele>521</ele>
        <time>2011-04-25T09:05:14Z</time>
      </trkpt>
      <trkpt lat="43.40365" lon="5.48349">
        <ele>521</ele>
        <time>2011-04-25T09:05:25Z</time>
      </trkpt>
      <trkpt lat="43.40364" lon="5.48346">
        <ele>521</ele>
        <time>2011-04-25T09:05:36Z</time>
      </trkpt>
      <trkpt lat="43.40364" lon="5.48341">
        <ele>521</ele>
        <time>2011-04-25T09:05:46Z</time>
      </trkpt>
      <trkpt lat="43.40364" lon="5.48338">
        <ele>521</ele>
        <time>2011-04-25T09:06:09Z</time>
      </trkpt>
      <trkpt lat="43.40363" lon="5.48334">
        <ele>521</ele>
        <time>2011-04-25T09:06:19Z</time>
      </trkpt>
      <trkpt lat="43.4036" lon="5.48331">
        <ele>519</ele>
        <time>2011-04-25T09:06:28Z</time>
      </trkpt>
      <trkpt lat="43.40358" lon="5.48326">
        <ele>517</ele>
        <time>2011-04-25T09:06:37Z</time>
      </trkpt>
      <trkpt lat="43.40353" lon="5.48321">
        <ele>514</ele>
        <time>2011-04-25T09:06:46Z</time>
      </trkpt>
      <trkpt lat="43.4035" lon="5.48321">
        <ele>512</ele>
        <time>2011-04-25T09:07:00Z</time>
      </trkpt>
      <trkpt lat="43.40348" lon="5.48324">
        <ele>508</ele>
        <time>2011-04-25T09:07:10Z</time>
      </trkpt>
      <trkpt lat="43.40345" lon="5.48321">
        <ele>506</ele>
        <time>2011-04-25T09:07:18Z</time>
      </trkpt>
      <trkpt lat="43.40343" lon="5.48319">
        <ele>506</ele>
        <time>2011-04-25T09:07:32Z</time>
      </trkpt>
      <trkpt lat="43.40341" lon="5.48318">
        <ele>506</ele>
        <time>2011-04-25T09:07:40Z</time>
      </trkpt>
      <trkpt lat="43.4034" lon="5.48317">
        <ele>504</ele>
        <time>2011-04-25T09:07:50Z</time>
      </trkpt>
      <trkpt lat="43.40339" lon="5.48319">
        <ele>503</ele>
        <time>2011-04-25T09:08:03Z</time>
      </trkpt>
      <trkpt lat="43.40338" lon="5.4832">
        <ele>503</ele>
        <time>2011-04-25T09:08:11Z</time>
      </trkpt>
      <trkpt lat="43.40338" lon="5.48323">
        <ele>503</ele>
        <time>2011-04-25T09:08:27Z</time>
      </trkpt>
      <trkpt lat="43.40337" lon="5.48327">
        <ele>503</ele>
        <time>2011-04-25T09:08:37Z</time>
      </trkpt>
      <trkpt lat="43.40336" lon="5.4833">
        <ele>503</ele>
        <time>2011-04-25T09:08:49Z</time>
      </trkpt>
      <trkpt lat="43.40337" lon="5.48333">
        <ele>503</ele>
        <time>2011-04-25T09:08:58Z</time>
      </trkpt>
      <trkpt lat="43.40336" lon="5.48328">
        <ele>501</ele>
        <time>2011-04-25T09:09:06Z</time>
      </trkpt>
      <trkpt lat="43.40334" lon="5.48327">
        <ele>495</ele>
        <time>2011-04-25T09:09:15Z</time>
      </trkpt>
      <trkpt lat="43.40338" lon="5.48329">
        <ele>487</ele>
        <time>2011-04-25T09:09:23Z</time>
      </trkpt>
      <trkpt lat="43.40336" lon="5.48333">
        <ele>482</ele>
        <time>2011-04-25T09:09:32Z</time>
      </trkpt>
      <trkpt lat="43.40334" lon="5.48332">
        <ele>481</ele>
        <time>2011-04-25T09:09:41Z</time>
      </trkpt>
      <trkpt lat="43.4034" lon="5.48333">
        <ele>479</ele>
        <time>2011-04-25T09:09:49Z</time>
      </trkpt>
      <trkpt lat="43.40336" lon="5.48338">
        <ele>478</ele>
        <time>2011-04-25T09:09:58Z</time>
      </trkpt>
      <trkpt lat="43.40329" lon="5.48338">
        <ele>493</ele>
        <time>2011-04-25T09:10:14Z</time>
      </trkpt>
      <trkpt lat="43.40332" lon="5.48336">
        <ele>493</ele>
        <time>2011-04-25T09:10:22Z</time>
      </trkpt>
      <trkpt lat="43.40334" lon="5.48337">
        <ele>493</ele>
        <time>2011-04-25T09:10:35Z</time>
      </trkpt>
      <trkpt lat="43.40333" lon="5.48338">
        <ele>490</ele>
        <time>2011-04-25T09:10:46Z</time>
      </trkpt>
      <trkpt lat="43.40337" lon="5.48334">
        <ele>490</ele>
        <time>2011-04-25T09:11:01Z</time>
      </trkpt>
      <trkpt lat="43.40339" lon="5.48329">
        <ele>478</ele>
        <time>2011-04-25T09:11:12Z</time>
      </trkpt>
      <trkpt lat="43.40337" lon="5.48329">
        <ele>470</ele>
        <time>2011-04-25T09:11:22Z</time>
      </trkpt>
      <trkpt lat="43.40338" lon="5.48329">
        <ele>469</ele>
        <time>2011-04-25T09:11:30Z</time>
      </trkpt>
      <trkpt lat="43.40336" lon="5.48334">
        <ele>469</ele>
        <time>2011-04-25T09:11:41Z</time>
      </trkpt>
      <trkpt lat="43.40333" lon="5.48329">
        <ele>475</ele>
        <time>2011-04-25T09:11:54Z</time>
      </trkpt>
      <trkpt lat="43.40331" lon="5.48333">
        <ele>475</ele>
        <time>2011-04-25T09:12:05Z</time>
      </trkpt>
      <trkpt lat="43.40332" lon="5.48331">
        <ele>471</ele>
        <time>2011-04-25T09:12:14Z</time>
      </trkpt>
      <trkpt lat="43.4033" lon="5.48324">
        <ele>472</ele>
        <time>2011-04-25T09:12:24Z</time>
      </trkpt>
      <trkpt lat="43.40324" lon="5.48314">
        <ele>477</ele>
        <time>2011-04-25T09:12:32Z</time>
      </trkpt>
      <trkpt lat="43.4032" lon="5.48316">
        <ele>483</ele>
        <time>2011-04-25T09:12:40Z</time>
      </trkpt>
      <trkpt lat="43.40319" lon="5.48314">
        <ele>490</ele>
        <time>2011-04-25T09:13:07Z</time>
      </trkpt>
      <trkpt lat="43.40319" lon="5.48314">
        <ele>490</ele>
        <time>2011-04-25T09:13:15Z</time>
      </trkpt>
      <trkpt lat="43.40321" lon="5.48314">
        <ele>490</ele>
        <time>2011-04-25T09:13:23Z</time>
      </trkpt>
      <trkpt lat="43.40323" lon="5.48312">
        <ele>490</ele>
        <time>2011-04-25T09:13:31Z</time>
      </trkpt>
      <trkpt lat="43.40324" lon="5.48307">
        <ele>490</ele>
        <time>2011-04-25T09:13:39Z</time>
      </trkpt>
      <trkpt lat="43.40325" lon="5.48304">
        <ele>490</ele>
        <time>2011-04-25T09:13:48Z</time>
      </trkpt>
      <trkpt lat="43.40323" lon="5.48307">
        <ele>490</ele>
        <time>2011-04-25T09:13:58Z</time>
      </trkpt>
      <trkpt lat="43.40323" lon="5.48307">
        <ele>490</ele>
        <time>2011-04-25T09:14:28Z</time>
      </trkpt>
      <trkpt lat="43.40324" lon="5.4831">
        <ele>490</ele>
        <time>2011-04-25T09:14:38Z</time>
      </trkpt>
      <trkpt lat="43.40328" lon="5.48315">
        <ele>490</ele>
        <time>2011-04-25T09:14:48Z</time>
      </trkpt>
      <trkpt lat="43.4033" lon="5.48322">
        <ele>490</ele>
        <time>2011-04-25T09:14:57Z</time>
      </trkpt>
      <trkpt lat="43.40331" lon="5.48327">
        <ele>490</ele>
        <time>2011-04-25T09:15:05Z</time>
      </trkpt>
      <trkpt lat="43.40331" lon="5.48332">
        <ele>484</ele>
        <time>2011-04-25T09:15:24Z</time>
      </trkpt>
      <trkpt lat="43.40332" lon="5.48336">
        <ele>476</ele>
        <time>2011-04-25T09:15:35Z</time>
      </trkpt>
      <trkpt lat="43.40331" lon="5.48334">
        <ele>476</ele>
        <time>2011-04-25T09:15:46Z</time>
      </trkpt>
      <trkpt lat="43.40332" lon="5.48334">
        <ele>476</ele>
        <time>2011-04-25T09:15:55Z</time>
      </trkpt>
      <trkpt lat="43.40335" lon="5.48334">
        <ele>474</ele>
        <time>2011-04-25T09:16:04Z</time>
      </trkpt>
      <trkpt lat="43.40334" lon="5.48329">
        <ele>478</ele>
        <time>2011-04-25T09:16:13Z</time>
      </trkpt>
      <trkpt lat="43.4033" lon="5.48329">
        <ele>487</ele>
        <time>2011-04-25T09:16:22Z</time>
      </trkpt>
      <trkpt lat="43.40338" lon="5.48332">
        <ele>487</ele>
        <time>2011-04-25T09:16:31Z</time>
      </trkpt>
      <trkpt lat="43.40337" lon="5.48333">
        <ele>484</ele>
        <time>2011-04-25T09:16:43Z</time>
      </trkpt>
      <trkpt lat="43.40337" lon="5.48335">
        <ele>483</ele>
        <time>2011-04-25T09:16:52Z</time>
      </trkpt>
      <trkpt lat="43.4034" lon="5.48336">
        <ele>482</ele>
        <time>2011-04-25T09:17:03Z</time>
      </trkpt>
      <trkpt lat="43.40342" lon="5.48332">
        <ele>482</ele>
        <time>2011-04-25T09:17:12Z</time>
      </trkpt>
      <trkpt lat="43.40341" lon="5.48327">
        <ele>491</ele>
        <time>2011-04-25T09:17:22Z</time>
      </trkpt>
      <trkpt lat="43.40339" lon="5.48322">
        <ele>497</ele>
        <time>2011-04-25T09:17:31Z</time>
      </trkpt>
      <trkpt lat="43.40338" lon="5.48321">
        <ele>498</ele>
        <time>2011-04-25T09:17:40Z</time>
      </trkpt>
      <trkpt lat="43.4034" lon="5.48319">
        <ele>499</ele>
        <time>2011-04-25T09:17:48Z</time>
      </trkpt>
      <trkpt lat="43.40343" lon="5.4832">
        <ele>500</ele>
        <time>2011-04-25T09:17:57Z</time>
      </trkpt>
      <trkpt lat="43.40345" lon="5.48321">
        <ele>501</ele>
        <time>2011-04-25T09:18:07Z</time>
      </trkpt>
      <trkpt lat="43.4035" lon="5.48322">
        <ele>503</ele>
        <time>2011-04-25T09:18:17Z</time>
      </trkpt>
      <trkpt lat="43.40352" lon="5.48319">
        <ele>507</ele>
        <time>2011-04-25T09:18:27Z</time>
      </trkpt>
      <trkpt lat="43.40358" lon="5.48323">
        <ele>508</ele>
        <time>2011-04-25T09:18:36Z</time>
      </trkpt>
      <trkpt lat="43.4036" lon="5.48329">
        <ele>511</ele>
        <time>2011-04-25T09:18:46Z</time>
      </trkpt>
      <trkpt lat="43.40364" lon="5.48333">
        <ele>512</ele>
        <time>2011-04-25T09:18:55Z</time>
      </trkpt>
      <trkpt lat="43.40365" lon="5.48337">
        <ele>513</ele>
        <time>2011-04-25T09:19:04Z</time>
      </trkpt>
      <trkpt lat="43.40365" lon="5.48343">
        <ele>514</ele>
        <time>2011-04-25T09:19:14Z</time>
      </trkpt>
      <trkpt lat="43.40364" lon="5.4835">
        <ele>514</ele>
        <time>2011-04-25T09:19:23Z</time>
      </trkpt>
      <trkpt lat="43.40364" lon="5.4835">
        <ele>516</ele>
        <time>2011-04-25T09:19:35Z</time>
      </trkpt>
      <trkpt lat="43.40363" lon="5.48352">
        <ele>516</ele>
        <time>2011-04-25T09:19:46Z</time>
      </trkpt>
      <trkpt lat="43.40365" lon="5.48352">
        <ele>516</ele>
        <time>2011-04-25T09:20:06Z</time>
      </trkpt>
      <trkpt lat="43.40364" lon="5.48354">
        <ele>517</ele>
        <time>2011-04-25T09:20:26Z</time>
      </trkpt>
      <trkpt lat="43.40362" lon="5.4836">
        <ele>517</ele>
        <time>2011-04-25T09:20:35Z</time>
      </trkpt>
      <trkpt lat="43.40358" lon="5.48368">
        <ele>517</ele>
        <time>2011-04-25T09:20:43Z</time>
      </trkpt>
      <trkpt lat="43.40355" lon="5.48372">
        <ele>517</ele>
        <time>2011-04-25T09:20:59Z</time>
      </trkpt>
      <trkpt lat="43.4036" lon="5.48365">
        <ele>517</ele>
        <time>2011-04-25T09:21:08Z</time>
      </trkpt>
      <trkpt lat="43.40362" lon="5.48357">
        <ele>517</ele>
        <time>2011-04-25T09:21:17Z</time>
      </trkpt>
      <trkpt lat="43.40366" lon="5.48353">
        <ele>517</ele>
        <time>2011-04-25T09:21:27Z</time>
      </trkpt>
      <trkpt lat="43.40367" lon="5.48353">
        <ele>517</ele>
        <time>2011-04-25T09:21:43Z</time>
      </trkpt>
      <trkpt lat="43.4037" lon="5.48353">
        <ele>518</ele>
        <time>2011-04-25T09:21:53Z</time>
      </trkpt>
      <trkpt lat="43.40376" lon="5.48351">
        <ele>518</ele>
        <time>2011-04-25T09:22:02Z</time>
      </trkpt>
      <trkpt lat="43.40381" lon="5.48349">
        <ele>518</ele>
        <time>2011-04-25T09:22:11Z</time>
      </trkpt>
      <trkpt lat="43.40385" lon="5.48353">
        <ele>518</ele>
        <time>2011-04-25T09:22:19Z</time>
      </trkpt>
      <trkpt lat="43.4039" lon="5.48356">
        <ele>519</ele>
        <time>2011-04-25T09:22:29Z</time>
      </trkpt>
      <trkpt lat="43.40395" lon="5.48355">
        <ele>519</ele>
        <time>2011-04-25T09:22:37Z</time>
      </trkpt>
      <trkpt lat="43.40399" lon="5.48357">
        <ele>519</ele>
        <time>2011-04-25T09:22:46Z</time>
      </trkpt>
      <trkpt lat="43.40403" lon="5.48356">
        <ele>519</ele>
        <time>2011-04-25T09:22:54Z</time>
      </trkpt>
      <trkpt lat="43.40407" lon="5.48356">
        <ele>519</ele>
        <time>2011-04-25T09:23:02Z</time>
      </trkpt>
      <trkpt lat="43.40411" lon="5.48353">
        <ele>519</ele>
        <time>2011-04-25T09:23:10Z</time>
      </trkpt>
      <trkpt lat="43.40415" lon="5.4835">
        <ele>520</ele>
        <time>2011-04-25T09:23:18Z</time>
      </trkpt>
      <trkpt lat="43.40418" lon="5.48347">
        <ele>521</ele>
        <time>2011-04-25T09:23:28Z</time>
      </trkpt>
      <trkpt lat="43.40422" lon="5.48344">
        <ele>523</ele>
        <time>2011-04-25T09:23:38Z</time>
      </trkpt>
      <trkpt lat="43.40426" lon="5.48339">
        <ele>524</ele>
        <time>2011-04-25T09:23:48Z</time>
      </trkpt>
      <trkpt lat="43.4043" lon="5.48336">
        <ele>524</ele>
        <time>2011-04-25T09:23:57Z</time>
      </trkpt>
      <trkpt lat="43.40434" lon="5.48333">
        <ele>526</ele>
        <time>2011-04-25T09:24:06Z</time>
      </trkpt>
      <trkpt lat="43.40436" lon="5.48331">
        <ele>526</ele>
        <time>2011-04-25T09:24:15Z</time>
      </trkpt>
      <trkpt lat="43.4044" lon="5.48328">
        <ele>527</ele>
        <time>2011-04-25T09:24:28Z</time>
      </trkpt>
      <trkpt lat="43.40444" lon="5.48323">
        <ele>528</ele>
        <time>2011-04-25T09:24:40Z</time>
      </trkpt>
      <trkpt lat="43.40446" lon="5.4832">
        <ele>529</ele>
        <time>2011-04-25T09:24:48Z</time>
      </trkpt>
      <trkpt lat="43.40448" lon="5.48319">
        <ele>530</ele>
        <time>2011-04-25T09:24:57Z</time>
      </trkpt>
      <trkpt lat="43.40452" lon="5.48317">
        <ele>532</ele>
        <time>2011-04-25T09:25:11Z</time>
      </trkpt>
      <trkpt lat="43.40455" lon="5.48315">
        <ele>532</ele>
        <time>2011-04-25T09:25:19Z</time>
      </trkpt>
      <trkpt lat="43.40459" lon="5.48312">
        <ele>533</ele>
        <time>2011-04-25T09:25:28Z</time>
      </trkpt>
      <trkpt lat="43.40463" lon="5.48309">
        <ele>534</ele>
        <time>2011-04-25T09:25:36Z</time>
      </trkpt>
      <trkpt lat="43.40466" lon="5.48308">
        <ele>535</ele>
        <time>2011-04-25T09:25:44Z</time>
      </trkpt>
      <trkpt lat="43.40469" lon="5.48303">
        <ele>536</ele>
        <time>2011-04-25T09:25:53Z</time>
      </trkpt>
      <trkpt lat="43.40473" lon="5.48299">
        <ele>536</ele>
        <time>2011-04-25T09:26:03Z</time>
      </trkpt>
      <trkpt lat="43.40475" lon="5.48295">
        <ele>536</ele>
        <time>2011-04-25T09:26:11Z</time>
      </trkpt>
      <trkpt lat="43.40479" lon="5.4829">
        <ele>536</ele>
        <time>2011-04-25T09:26:23Z</time>
      </trkpt>
      <trkpt lat="43.40483" lon="5.4829">
        <ele>536</ele>
        <time>2011-04-25T09:26:34Z</time>
      </trkpt>
      <trkpt lat="43.40487" lon="5.48294">
        <ele>537</ele>
        <time>2011-04-25T09:26:46Z</time>
      </trkpt>
      <trkpt lat="43.40491" lon="5.48298">
        <ele>538</ele>
        <time>2011-04-25T09:26:56Z</time>
      </trkpt>
      <trkpt lat="43.4049" lon="5.48298">
        <ele>539</ele>
        <time>2011-04-25T09:27:09Z</time>
      </trkpt>
      <trkpt lat="43.4049" lon="5.48299">
        <ele>541</ele>
        <time>2011-04-25T09:27:24Z</time>
      </trkpt>
      <trkpt lat="43.40491" lon="5.483">
        <ele>542</ele>
        <time>2011-04-25T09:27:51Z</time>
      </trkpt>
      <trkpt lat="43.40493" lon="5.48301">
        <ele>543</ele>
        <time>2011-04-25T09:28:25Z</time>
      </trkpt>
      <trkpt lat="43.40494" lon="5.48303">
        <ele>544</ele>
        <time>2011-04-25T09:29:08Z</time>
      </trkpt>
      <trkpt lat="43.40496" lon="5.48307">
        <ele>544</ele>
        <time>2011-04-25T09:29:16Z</time>
      </trkpt>
      <trkpt lat="43.40501" lon="5.4831">
        <ele>544</ele>
        <time>2011-04-25T09:29:24Z</time>
      </trkpt>
      <trkpt lat="43.40507" lon="5.48316">
        <ele>544</ele>
        <time>2011-04-25T09:29:33Z</time>
      </trkpt>
      <trkpt lat="43.40511" lon="5.48322">
        <ele>544</ele>
        <time>2011-04-25T09:29:42Z</time>
      </trkpt>
      <trkpt lat="43.40516" lon="5.48331">
        <ele>544</ele>
        <time>2011-04-25T09:29:52Z</time>
      </trkpt>
      <trkpt lat="43.4052" lon="5.48338">
        <ele>544</ele>
        <time>2011-04-25T09:30:01Z</time>
      </trkpt>
      <trkpt lat="43.40526" lon="5.48348">
        <ele>544</ele>
        <time>2011-04-25T09:30:12Z</time>
      </trkpt>
      <trkpt lat="43.40532" lon="5.48357">
        <ele>544</ele>
        <time>2011-04-25T09:30:22Z</time>
      </trkpt>
      <trkpt lat="43.40536" lon="5.48367">
        <ele>544</ele>
        <time>2011-04-25T09:30:30Z</time>
      </trkpt>
      <trkpt lat="43.40542" lon="5.48376">
        <ele>544</ele>
        <time>2011-04-25T09:30:39Z</time>
      </trkpt>
      <trkpt lat="43.40549" lon="5.48387">
        <ele>542</ele>
        <time>2011-04-25T09:30:49Z</time>
      </trkpt>
      <trkpt lat="43.40556" lon="5.48396">
        <ele>541</ele>
        <time>2011-04-25T09:30:57Z</time>
      </trkpt>
      <trkpt lat="43.4056" lon="5.48407">
        <ele>541</ele>
        <time>2011-04-25T09:31:05Z</time>
      </trkpt>
      <trkpt lat="43.40561" lon="5.48406">
        <ele>541</ele>
        <time>2011-04-25T09:31:13Z</time>
      </trkpt>
      <trkpt lat="43.4056" lon="5.48407">
        <ele>541</ele>
        <time>2011-04-25T09:31:29Z</time>
      </trkpt>
      <trkpt lat="43.4056" lon="5.48409">
        <ele>542</ele>
        <time>2011-04-25T09:31:47Z</time>
      </trkpt>
      <trkpt lat="43.4056" lon="5.48419">
        <ele>543</ele>
        <time>2011-04-25T09:31:55Z</time>
      </trkpt>
      <trkpt lat="43.4056" lon="5.48429">
        <ele>543</ele>
        <time>2011-04-25T09:32:03Z</time>
      </trkpt>
      <trkpt lat="43.40561" lon="5.48437">
        <ele>543</ele>
        <time>2011-04-25T09:32:11Z</time>
      </trkpt>
      <trkpt lat="43.40563" lon="5.48444">
        <ele>543</ele>
        <time>2011-04-25T09:32:19Z</time>
      </trkpt>
      <trkpt lat="43.40567" lon="5.48452">
        <ele>543</ele>
        <time>2011-04-25T09:32:27Z</time>
      </trkpt>
      <trkpt lat="43.4057" lon="5.48459">
        <ele>543</ele>
        <time>2011-04-25T09:32:35Z</time>
      </trkpt>
      <trkpt lat="43.40574" lon="5.48467">
        <ele>543</ele>
        <time>2011-04-25T09:32:43Z</time>
      </trkpt>
      <trkpt lat="43.40577" lon="5.48474">
        <ele>543</ele>
        <time>2011-04-25T09:32:51Z</time>
      </trkpt>
      <trkpt lat="43.4058" lon="5.48487">
        <ele>544</ele>
        <time>2011-04-25T09:33:00Z</time>
      </trkpt>
      <trkpt lat="43.40583" lon="5.48497">
        <ele>547</ele>
        <time>2011-04-25T09:33:08Z</time>
      </trkpt>
      <trkpt lat="43.40586" lon="5.48502">
        <ele>549</ele>
        <time>2011-04-25T09:33:16Z</time>
      </trkpt>
      <trkpt lat="43.4059" lon="5.48509">
        <ele>549</ele>
        <time>2011-04-25T09:33:24Z</time>
      </trkpt>
      <trkpt lat="43.40593" lon="5.48518">
        <ele>549</ele>
        <time>2011-04-25T09:33:32Z</time>
      </trkpt>
      <trkpt lat="43.40597" lon="5.48527">
        <ele>552</ele>
        <time>2011-04-25T09:33:41Z</time>
      </trkpt>
      <trkpt lat="43.40601" lon="5.48537">
        <ele>556</ele>
        <time>2011-04-25T09:33:50Z</time>
      </trkpt>
      <trkpt lat="43.40603" lon="5.48546">
        <ele>556</ele>
        <time>2011-04-25T09:33:58Z</time>
      </trkpt>
      <trkpt lat="43.40606" lon="5.48555">
        <ele>553</ele>
        <time>2011-04-25T09:34:07Z</time>
      </trkpt>
      <trkpt lat="43.40609" lon="5.48561">
        <ele>553</ele>
        <time>2011-04-25T09:34:15Z</time>
      </trkpt>
      <trkpt lat="43.40615" lon="5.48563">
        <ele>553</ele>
        <time>2011-04-25T09:34:23Z</time>
      </trkpt>
      <trkpt lat="43.40624" lon="5.48567">
        <ele>555</ele>
        <time>2011-04-25T09:34:32Z</time>
      </trkpt>
      <trkpt lat="43.4063" lon="5.4857">
        <ele>555</ele>
        <time>2011-04-25T09:34:40Z</time>
      </trkpt>
      <trkpt lat="43.40636" lon="5.48574">
        <ele>556</ele>
        <time>2011-04-25T09:34:48Z</time>
      </trkpt>
      <trkpt lat="43.40643" lon="5.48578">
        <ele>557</ele>
        <time>2011-04-25T09:34:56Z</time>
      </trkpt>
      <trkpt lat="43.40649" lon="5.48583">
        <ele>559</ele>
        <time>2011-04-25T09:35:04Z</time>
      </trkpt>
      <trkpt lat="43.40654" lon="5.48589">
        <ele>561</ele>
        <time>2011-04-25T09:35:13Z</time>
      </trkpt>
      <trkpt lat="43.40657" lon="5.48592">
        <ele>562</ele>
        <time>2011-04-25T09:35:25Z</time>
      </trkpt>
      <trkpt lat="43.40657" lon="5.48593">
        <ele>562</ele>
        <time>2011-04-25T09:36:13Z</time>
      </trkpt>
      <trkpt lat="43.40656" lon="5.48595">
        <ele>565</ele>
        <time>2011-04-25T09:37:46Z</time>
      </trkpt>
      <trkpt lat="43.40658" lon="5.48605">
        <ele>565</ele>
        <time>2011-04-25T09:37:54Z</time>
      </trkpt>
      <trkpt lat="43.4066" lon="5.48613">
        <ele>565</ele>
        <time>2011-04-25T09:38:03Z</time>
      </trkpt>
      <trkpt lat="43.40661" lon="5.4862">
        <ele>565</ele>
        <time>2011-04-25T09:38:11Z</time>
      </trkpt>
      <trkpt lat="43.40663" lon="5.48627">
        <ele>565</ele>
        <time>2011-04-25T09:38:19Z</time>
      </trkpt>
      <trkpt lat="43.40664" lon="5.48636">
        <ele>566</ele>
        <time>2011-04-25T09:38:29Z</time>
      </trkpt>
      <trkpt lat="43.40663" lon="5.48643">
        <ele>568</ele>
        <time>2011-04-25T09:38:38Z</time>
      </trkpt>
      <trkpt lat="43.40663" lon="5.48653">
        <ele>568</ele>
        <time>2011-04-25T09:38:47Z</time>
      </trkpt>
      <trkpt lat="43.4066" lon="5.48661">
        <ele>569</ele>
        <time>2011-04-25T09:38:56Z</time>
      </trkpt>
      <trkpt lat="43.4066" lon="5.48671">
        <ele>569</ele>
        <time>2011-04-25T09:39:05Z</time>
      </trkpt>
      <trkpt lat="43.40661" lon="5.48682">
        <ele>569</ele>
        <time>2011-04-25T09:39:14Z</time>
      </trkpt>
      <trkpt lat="43.40664" lon="5.48694">
        <ele>569</ele>
        <time>2011-04-25T09:39:23Z</time>
      </trkpt>
      <trkpt lat="43.40668" lon="5.48704">
        <ele>569</ele>
        <time>2011-04-25T09:39:31Z</time>
      </trkpt>
      <trkpt lat="43.40673" lon="5.48713">
        <ele>569</ele>
        <time>2011-04-25T09:39:40Z</time>
      </trkpt>
      <trkpt lat="43.40678" lon="5.48718">
        <ele>569</ele>
        <time>2011-04-25T09:39:48Z</time>
      </trkpt>
      <trkpt lat="43.40684" lon="5.48715">
        <ele>569</ele>
        <time>2011-04-25T09:39:56Z</time>
      </trkpt>
      <trkpt lat="43.40689" lon="5.48707">
        <ele>569</ele>
        <time>2011-04-25T09:40:04Z</time>
      </trkpt>
      <trkpt lat="43.40694" lon="5.48698">
        <ele>569</ele>
        <time>2011-04-25T09:40:12Z</time>
      </trkpt>
      <trkpt lat="43.407" lon="5.48687">
        <ele>569</ele>
        <time>2011-04-25T09:40:21Z</time>
      </trkpt>
      <trkpt lat="43.40706" lon="5.48678">
        <ele>570</ele>
        <time>2011-04-25T09:40:29Z</time>
      </trkpt>
      <trkpt lat="43.40717" lon="5.48672">
        <ele>570</ele>
        <time>2011-04-25T09:40:37Z</time>
      </trkpt>
      <trkpt lat="43.40719" lon="5.48661">
        <ele>570</ele>
        <time>2011-04-25T09:40:45Z</time>
      </trkpt>
      <trkpt lat="43.40723" lon="5.48649">
        <ele>570</ele>
        <time>2011-04-25T09:40:53Z</time>
      </trkpt>
      <trkpt lat="43.40727" lon="5.48637">
        <ele>570</ele>
        <time>2011-04-25T09:41:01Z</time>
      </trkpt>
      <trkpt lat="43.40732" lon="5.48627">
        <ele>570</ele>
        <time>2011-04-25T09:41:09Z</time>
      </trkpt>
      <trkpt lat="43.40736" lon="5.48616">
        <ele>571</ele>
        <time>2011-04-25T09:41:18Z</time>
      </trkpt>
      <trkpt lat="43.40739" lon="5.48604">
        <ele>572</ele>
        <time>2011-04-25T09:41:26Z</time>
      </trkpt>
      <trkpt lat="43.40741" lon="5.48593">
        <ele>572</ele>
        <time>2011-04-25T09:41:34Z</time>
      </trkpt>
      <trkpt lat="43.40744" lon="5.48582">
        <ele>572</ele>
        <time>2011-04-25T09:41:42Z</time>
      </trkpt>
      <trkpt lat="43.40746" lon="5.48569">
        <ele>572</ele>
        <time>2011-04-25T09:41:50Z</time>
      </trkpt>
      <trkpt lat="43.40747" lon="5.48557">
        <ele>572</ele>
        <time>2011-04-25T09:41:58Z</time>
      </trkpt>
      <trkpt lat="43.4075" lon="5.48545">
        <ele>573</ele>
        <time>2011-04-25T09:42:06Z</time>
      </trkpt>
      <trkpt lat="43.40754" lon="5.48533">
        <ele>573</ele>
        <time>2011-04-25T09:42:14Z</time>
      </trkpt>
      <trkpt lat="43.40756" lon="5.4852">
        <ele>574</ele>
        <time>2011-04-25T09:42:22Z</time>
      </trkpt>
      <trkpt lat="43.40758" lon="5.48508">
        <ele>574</ele>
        <time>2011-04-25T09:42:30Z</time>
      </trkpt>
      <trkpt lat="43.40764" lon="5.48496">
        <ele>574</ele>
        <time>2011-04-25T09:42:39Z</time>
      </trkpt>
      <trkpt lat="43.40769" lon="5.48488">
        <ele>574</ele>
        <time>2011-04-25T09:42:47Z</time>
      </trkpt>
      <trkpt lat="43.40773" lon="5.4848">
        <ele>575</ele>
        <time>2011-04-25T09:42:55Z</time>
      </trkpt>
      <trkpt lat="43.40779" lon="5.4847">
        <ele>576</ele>
        <time>2011-04-25T09:43:03Z</time>
      </trkpt>
      <trkpt lat="43.40784" lon="5.48458">
        <ele>576</ele>
        <time>2011-04-25T09:43:12Z</time>
      </trkpt>
      <trkpt lat="43.40788" lon="5.48447">
        <ele>576</ele>
        <time>2011-04-25T09:43:20Z</time>
      </trkpt>
      <trkpt lat="43.40792" lon="5.48438">
        <ele>577</ele>
        <time>2011-04-25T09:43:28Z</time>
      </trkpt>
      <trkpt lat="43.40799" lon="5.48428">
        <ele>577</ele>
        <time>2011-04-25T09:43:36Z</time>
      </trkpt>
      <trkpt lat="43.40805" lon="5.48419">
        <ele>577</ele>
        <time>2011-04-25T09:43:44Z</time>
      </trkpt>
      <trkpt lat="43.40811" lon="5.48407">
        <ele>580</ele>
        <time>2011-04-25T09:43:53Z</time>
      </trkpt>
      <trkpt lat="43.40816" lon="5.48396">
        <ele>580</ele>
        <time>2011-04-25T09:44:01Z</time>
      </trkpt>
      <trkpt lat="43.40821" lon="5.48384">
        <ele>581</ele>
        <time>2011-04-25T09:44:10Z</time>
      </trkpt>
      <trkpt lat="43.40823" lon="5.4837">
        <ele>582</ele>
        <time>2011-04-25T09:44:19Z</time>
      </trkpt>
      <trkpt lat="43.40827" lon="5.48358">
        <ele>582</ele>
        <time>2011-04-25T09:44:28Z</time>
      </trkpt>
      <trkpt lat="43.40833" lon="5.48356">
        <ele>583</ele>
        <time>2011-04-25T09:44:36Z</time>
      </trkpt>
      <trkpt lat="43.40838" lon="5.48362">
        <ele>584</ele>
        <time>2011-04-25T09:44:48Z</time>
      </trkpt>
      <trkpt lat="43.40839" lon="5.48365">
        <ele>584</ele>
        <time>2011-04-25T09:44:56Z</time>
      </trkpt>
      <trkpt lat="43.40841" lon="5.48375">
        <ele>584</ele>
        <time>2011-04-25T09:45:05Z</time>
      </trkpt>
      <trkpt lat="43.40843" lon="5.48384">
        <ele>583</ele>
        <time>2011-04-25T09:45:13Z</time>
      </trkpt>
      <trkpt lat="43.40845" lon="5.48394">
        <ele>582</ele>
        <time>2011-04-25T09:45:22Z</time>
      </trkpt>
      <trkpt lat="43.40847" lon="5.48404">
        <ele>581</ele>
        <time>2011-04-25T09:45:30Z</time>
      </trkpt>
      <trkpt lat="43.40849" lon="5.48413">
        <ele>579</ele>
        <time>2011-04-25T09:45:38Z</time>
      </trkpt>
      <trkpt lat="43.40851" lon="5.48424">
        <ele>579</ele>
        <time>2011-04-25T09:45:46Z</time>
      </trkpt>
      <trkpt lat="43.40854" lon="5.48435">
        <ele>578</ele>
        <time>2011-04-25T09:45:54Z</time>
      </trkpt>
      <trkpt lat="43.40857" lon="5.48446">
        <ele>578</ele>
        <time>2011-04-25T09:46:02Z</time>
      </trkpt>
      <trkpt lat="43.4086" lon="5.48455">
        <ele>577</ele>
        <time>2011-04-25T09:46:10Z</time>
      </trkpt>
      <trkpt lat="43.40862" lon="5.48466">
        <ele>576</ele>
        <time>2011-04-25T09:46:18Z</time>
      </trkpt>
      <trkpt lat="43.40865" lon="5.48476">
        <ele>574</ele>
        <time>2011-04-25T09:46:27Z</time>
      </trkpt>
      <trkpt lat="43.40869" lon="5.48488">
        <ele>573</ele>
        <time>2011-04-25T09:46:36Z</time>
      </trkpt>
      <trkpt lat="43.40872" lon="5.485">
        <ele>573</ele>
        <time>2011-04-25T09:46:45Z</time>
      </trkpt>
      <trkpt lat="43.40875" lon="5.4851">
        <ele>572</ele>
        <time>2011-04-25T09:46:54Z</time>
      </trkpt>
      <trkpt lat="43.40877" lon="5.48521">
        <ele>571</ele>
        <time>2011-04-25T09:47:02Z</time>
      </trkpt>
      <trkpt lat="43.40885" lon="5.48533">
        <ele>570</ele>
        <time>2011-04-25T09:47:11Z</time>
      </trkpt>
      <trkpt lat="43.40894" lon="5.4854">
        <ele>570</ele>
        <time>2011-04-25T09:47:19Z</time>
      </trkpt>
      <trkpt lat="43.40903" lon="5.48549">
        <ele>570</ele>
        <time>2011-04-25T09:47:28Z</time>
      </trkpt>
      <trkpt lat="43.40905" lon="5.48561">
        <ele>570</ele>
        <time>2011-04-25T09:47:36Z</time>
      </trkpt>
      <trkpt lat="43.40904" lon="5.48575">
        <ele>570</ele>
        <time>2011-04-25T09:47:45Z</time>
      </trkpt>
      <trkpt lat="43.40907" lon="5.48588">
        <ele>569</ele>
        <time>2011-04-25T09:47:54Z</time>
      </trkpt>
      <trkpt lat="43.40908" lon="5.486">
        <ele>567</ele>
        <time>2011-04-25T09:48:02Z</time>
      </trkpt>
      <trkpt lat="43.40911" lon="5.48613">
        <ele>565</ele>
        <time>2011-04-25T09:48:11Z</time>
      </trkpt>
      <trkpt lat="43.40915" lon="5.48624">
        <ele>564</ele>
        <time>2011-04-25T09:48:19Z</time>
      </trkpt>
      <trkpt lat="43.4092" lon="5.48635">
        <ele>564</ele>
        <time>2011-04-25T09:48:27Z</time>
      </trkpt>
      <trkpt lat="43.40922" lon="5.48646">
        <ele>562</ele>
        <time>2011-04-25T09:48:35Z</time>
      </trkpt>
      <trkpt lat="43.40924" lon="5.48658">
        <ele>562</ele>
        <time>2011-04-25T09:48:43Z</time>
      </trkpt>
      <trkpt lat="43.40926" lon="5.4867">
        <ele>562</ele>
        <time>2011-04-25T09:48:51Z</time>
      </trkpt>
      <trkpt lat="43.40928" lon="5.48682">
        <ele>559</ele>
        <time>2011-04-25T09:48:59Z</time>
      </trkpt>
      <trkpt lat="43.40928" lon="5.48693">
        <ele>557</ele>
        <time>2011-04-25T09:49:08Z</time>
      </trkpt>
      <trkpt lat="43.4093" lon="5.48707">
        <ele>557</ele>
        <time>2011-04-25T09:49:16Z</time>
      </trkpt>
      <trkpt lat="43.40938" lon="5.4872">
        <ele>556</ele>
        <time>2011-04-25T09:49:25Z</time>
      </trkpt>
      <trkpt lat="43.40944" lon="5.48731">
        <ele>556</ele>
        <time>2011-04-25T09:49:33Z</time>
      </trkpt>
      <trkpt lat="43.40947" lon="5.4874">
        <ele>554</ele>
        <time>2011-04-25T09:49:41Z</time>
      </trkpt>
      <trkpt lat="43.4095" lon="5.48753">
        <ele>553</ele>
        <time>2011-04-25T09:49:50Z</time>
      </trkpt>
      <trkpt lat="43.40951" lon="5.48764">
        <ele>552</ele>
        <time>2011-04-25T09:49:58Z</time>
      </trkpt>
      <trkpt lat="43.40955" lon="5.48769">
        <ele>552</ele>
        <time>2011-04-25T09:50:07Z</time>
      </trkpt>
      <trkpt lat="43.40955" lon="5.48781">
        <ele>552</ele>
        <time>2011-04-25T09:50:15Z</time>
      </trkpt>
      <trkpt lat="43.40955" lon="5.48794">
        <ele>551</ele>
        <time>2011-04-25T09:50:23Z</time>
      </trkpt>
      <trkpt lat="43.40956" lon="5.48808">
        <ele>551</ele>
        <time>2011-04-25T09:50:31Z</time>
      </trkpt>
      <trkpt lat="43.4096" lon="5.4882">
        <ele>551</ele>
        <time>2011-04-25T09:50:39Z</time>
      </trkpt>
      <trkpt lat="43.40966" lon="5.4883">
        <ele>551</ele>
        <time>2011-04-25T09:50:47Z</time>
      </trkpt>
      <trkpt lat="43.4097" lon="5.4884">
        <ele>550</ele>
        <time>2011-04-25T09:50:55Z</time>
      </trkpt>
      <trkpt lat="43.40975" lon="5.48851">
        <ele>547</ele>
        <time>2011-04-25T09:51:03Z</time>
      </trkpt>
      <trkpt lat="43.4098" lon="5.48865">
        <ele>546</ele>
        <time>2011-04-25T09:51:12Z</time>
      </trkpt>
      <trkpt lat="43.40984" lon="5.48878">
        <ele>546</ele>
        <time>2011-04-25T09:51:20Z</time>
      </trkpt>
      <trkpt lat="43.40983" lon="5.48885">
        <ele>546</ele>
        <time>2011-04-25T09:51:29Z</time>
      </trkpt>
      <trkpt lat="43.40985" lon="5.48895">
        <ele>544</ele>
        <time>2011-04-25T09:51:37Z</time>
      </trkpt>
      <trkpt lat="43.40987" lon="5.4891">
        <ele>544</ele>
        <time>2011-04-25T09:51:45Z</time>
      </trkpt>
      <trkpt lat="43.40988" lon="5.48922">
        <ele>544</ele>
        <time>2011-04-25T09:51:53Z</time>
      </trkpt>
      <trkpt lat="43.40991" lon="5.48935">
        <ele>544</ele>
        <time>2011-04-25T09:52:01Z</time>
      </trkpt>
      <trkpt lat="43.40995" lon="5.48949">
        <ele>544</ele>
        <time>2011-04-25T09:52:09Z</time>
      </trkpt>
      <trkpt lat="43.41004" lon="5.48959">
        <ele>543</ele>
        <time>2011-04-25T09:52:17Z</time>
      </trkpt>
      <trkpt lat="43.41011" lon="5.48969">
        <ele>541</ele>
        <time>2011-04-25T09:52:25Z</time>
      </trkpt>
      <trkpt lat="43.41015" lon="5.4898">
        <ele>539</ele>
        <time>2011-04-25T09:52:33Z</time>
      </trkpt>
      <trkpt lat="43.41019" lon="5.48993">
        <ele>537</ele>
        <time>2011-04-25T09:52:42Z</time>
      </trkpt>
      <trkpt lat="43.41022" lon="5.49004">
        <ele>537</ele>
        <time>2011-04-25T09:52:50Z</time>
      </trkpt>
      <trkpt lat="43.41025" lon="5.49011">
        <ele>536</ele>
        <time>2011-04-25T09:52:58Z</time>
      </trkpt>
      <trkpt lat="43.41026" lon="5.49024">
        <ele>536</ele>
        <time>2011-04-25T09:53:06Z</time>
      </trkpt>
      <trkpt lat="43.41031" lon="5.49036">
        <ele>536</ele>
        <time>2011-04-25T09:53:14Z</time>
      </trkpt>
      <trkpt lat="43.41038" lon="5.49045">
        <ele>536</ele>
        <time>2011-04-25T09:53:22Z</time>
      </trkpt>
      <trkpt lat="43.41044" lon="5.4905">
        <ele>534</ele>
        <time>2011-04-25T09:53:32Z</time>
      </trkpt>
      <trkpt lat="43.41053" lon="5.4906">
        <ele>530</ele>
        <time>2011-04-25T09:53:41Z</time>
      </trkpt>
      <trkpt lat="43.41057" lon="5.49069">
        <ele>529</ele>
        <time>2011-04-25T09:53:50Z</time>
      </trkpt>
      <trkpt lat="43.4106" lon="5.49076">
        <ele>527</ele>
        <time>2011-04-25T09:54:00Z</time>
      </trkpt>
      <trkpt lat="43.41065" lon="5.49086">
        <ele>527</ele>
        <time>2011-04-25T09:54:09Z</time>
      </trkpt>
      <trkpt lat="43.41066" lon="5.4909">
        <ele>527</ele>
        <time>2011-04-25T09:54:30Z</time>
      </trkpt>
      <trkpt lat="43.41066" lon="5.49091">
        <ele>527</ele>
        <time>2011-04-25T09:54:39Z</time>
      </trkpt>
      <trkpt lat="43.41066" lon="5.4909">
        <ele>527</ele>
        <time>2011-04-25T09:54:43Z</time>
      </trkpt>
    </trkseg>
  </trk>
</gpx>